sensor_id;sensor_type;location;lat;lon;timestamp;pressure;altitude;pressure_sealevel;temperature;humidity
21728;BME280;11026;50.560;17.852;2023-03-03T00:01:55;99953.84;;;-1.34;100.00
21728;BME280;11026;50.560;17.852;2023-03-03T00:04:23;99946.09;;;-1.31;100.00
21728;BME280;11026;50.560;17.852;2023-03-03T00:06:51;99944.34;;;-1.32;100.00
21728;BME280;11026;50.560;17.852;2023-03-03T00:09:20;99949.47;;;-1.35;100.00
21728;BME280;11026;50.560;17.852;2023-03-03T00:11:53;99940.13;;;-1.19;100.00
21728;BME280;11026;50.560;17.852;2023-03-03T00:14:28;99941.94;;;-1.12;100.00
21728;BME280;11026;50.560;17.852;2023-03-03T00:16:57;99939.34;;;-1.12;100.00
21728;BME280;11026;50.560;17.852;2023-03-03T00:19:29;99944.50;;;-1.18;100.00
21728;BME280;11026;50.560;17.852;2023-03-03T00:22:15;99957.47;;;-1.16;100.00
21728;BME280;11026;50.560;17.852;2023-03-03T00:24:51;99964.34;;;-1.20;100.00
21728;BME280;11026;50.560;17.852;2023-03-03T00:27:34;99960.84;;;-1.24;100.00
21728;BME280;11026;50.560;17.852;2023-03-03T00:30:17;99966.03;;;-1.24;100.00
21728;BME280;11026;50.560;17.852;2023-03-03T00:32:46;99960.84;;;-1.24;100.00
21728;BME280;11026;50.560;17.852;2023-03-03T00:35:28;99959.19;;;-1.18;100.00
21728;BME280;11026;50.560;17.852;2023-03-03T00:37:59;99954.06;;;-1.12;100.00
21728;BME280;11026;50.560;17.852;2023-03-03T00:40:34;99955.69;;;-1.22;100.00
21728;BME280;11026;50.560;17.852;2023-03-03T00:43:20;99952.19;;;-1.26;100.00
21728;BME280;11026;50.560;17.852;2023-03-03T00:45:51;99956.56;;;-1.21;100.00
21728;BME280;11026;50.560;17.852;2023-03-03T00:48:28;99952.28;;;-1.15;100.00
21728;BME280;11026;50.560;17.852;2023-03-03T00:50:59;99932.41;;;-1.11;100.00
21728;BME280;11026;50.560;17.852;2023-03-03T00:53:29;99936.84;;;-1.03;100.00
21728;BME280;11026;50.560;17.852;2023-03-03T00:55:57;99936.03;;;-0.98;100.00
21728;BME280;11026;50.560;17.852;2023-03-03T00:58:30;99928.22;;;-0.97;100.00
21728;BME280;11026;50.560;17.852;2023-03-03T01:00:58;99929.91;;;-1.04;100.00
21728;BME280;11026;50.560;17.852;2023-03-03T01:03:27;99921.25;;;-1.06;100.00
21728;BME280;11026;50.560;17.852;2023-03-03T01:05:55;99922.09;;;-1.05;100.00
21728;BME280;11026;50.560;17.852;2023-03-03T01:08:22;99914.31;;;-1.04;100.00
21728;BME280;11026;50.560;17.852;2023-03-03T01:10:53;99915.09;;;-1.12;100.00
21728;BME280;11026;50.560;17.852;2023-03-03T01:13:26;99920.22;;;-1.21;100.00
21728;BME280;11026;50.560;17.852;2023-03-03T01:15:54;99924.56;;;-1.19;100.00
21728;BME280;11026;50.560;17.852;2023-03-03T01:18:21;99917.59;;;-1.23;100.00
21728;BME280;11026;50.560;17.852;2023-03-03T01:20:49;99918.50;;;-1.21;100.00
21728;BME280;11026;50.560;17.852;2023-03-03T01:23:18;99913.38;;;-1.13;100.00
21728;BME280;11026;50.560;17.852;2023-03-03T01:25:46;99921.09;;;-1.19;100.00
21728;BME280;11026;50.560;17.852;2023-03-03T01:28:15;99921.13;;;-1.18;100.00
21728;BME280;11026;50.560;17.852;2023-03-03T01:30:42;99924.56;;;-1.19;100.00
21728;BME280;11026;50.560;17.852;2023-03-03T01:33:11;99934.13;;;-1.16;100.00
21728;BME280;11026;50.560;17.852;2023-03-03T01:35:45;99930.72;;;-1.11;100.00
21728;BME280;11026;50.560;17.852;2023-03-03T01:38:14;99930.72;;;-1.09;100.00
21728;BME280;11026;50.560;17.852;2023-03-03T01:40:42;99928.13;;;-1.08;100.00
21728;BME280;11026;50.560;17.852;2023-03-03T01:43:14;99918.59;;;-1.07;100.00
21728;BME280;11026;50.560;17.852;2023-03-03T01:48:40;99918.69;;;-1.00;100.00
21728;BME280;11026;50.560;17.852;2023-03-03T01:51:21;99927.34;;;-1.02;100.00
21728;BME280;11026;50.560;17.852;2023-03-03T01:53:55;99927.38;;;-0.96;100.00
21728;BME280;11026;50.560;17.852;2023-03-03T01:56:24;99923.97;;;-0.89;100.00
21728;BME280;11026;50.560;17.852;2023-03-03T01:59:04;99922.28;;;-0.85;100.00
21728;BME280;11026;50.560;17.852;2023-03-03T02:01:34;99917.03;;;-0.90;100.00
21728;BME280;11026;50.560;17.852;2023-03-03T02:04:02;99914.44;;;-0.88;100.00
21728;BME280;11026;50.560;17.852;2023-03-03T02:06:43;99923.03;;;-0.95;100.00
21728;BME280;11026;50.560;17.852;2023-03-03T02:09:42;99918.78;;;-0.89;100.00
21728;BME280;11026;50.560;17.852;2023-03-03T02:12:13;99915.31;;;-0.91;100.00
21728;BME280;11026;50.560;17.852;2023-03-03T02:14:43;99913.63;;;-0.86;100.00
21728;BME280;11026;50.560;17.852;2023-03-03T02:17:10;99905.88;;;-0.78;100.00
21728;BME280;11026;50.560;17.852;2023-03-03T02:22:08;99905.03;;;-0.76;100.00
21728;BME280;11026;50.560;17.852;2023-03-03T02:24:56;99903.22;;;-0.86;100.00
21728;BME280;11026;50.560;17.852;2023-03-03T02:27:28;99895.50;;;-0.77;100.00
21728;BME280;11026;50.560;17.852;2023-03-03T02:30:07;99891.19;;;-0.75;100.00
21728;BME280;11026;50.560;17.852;2023-03-03T02:32:38;99900.69;;;-0.77;100.00
21728;BME280;11026;50.560;17.852;2023-03-03T02:35:31;99904.19;;;-0.75;100.00
21728;BME280;11026;50.560;17.852;2023-03-03T02:40:36;99895.53;;;-0.73;100.00
21728;BME280;11026;50.560;17.852;2023-03-03T02:43:08;99897.28;;;-0.68;100.00
21728;BME280;11026;50.560;17.852;2023-03-03T02:45:42;99891.25;;;-0.65;100.00
21728;BME280;11026;50.560;17.852;2023-03-03T02:48:09;99893.03;;;-0.58;100.00
21728;BME280;11026;50.560;17.852;2023-03-03T02:50:37;99887.84;;;-0.58;100.00
21728;BME280;11026;50.560;17.852;2023-03-03T02:53:04;99889.56;;;-0.57;100.00
21728;BME280;11026;50.560;17.852;2023-03-03T02:55:32;99887.03;;;-0.51;100.00
21728;BME280;11026;50.560;17.852;2023-03-03T02:57:59;99890.44;;;-0.58;100.00
21728;BME280;11026;50.560;17.852;2023-03-03T03:00:27;99880.09;;;-0.51;100.00
21728;BME280;11026;50.560;17.852;2023-03-03T03:02:54;99887.84;;;-0.58;100.00
21728;BME280;11026;50.560;17.852;2023-03-03T03:05:22;99882.66;;;-0.54;100.00
21728;BME280;11026;50.560;17.852;2023-03-03T03:07:49;99890.53;;;-0.47;100.00
21728;BME280;11026;50.560;17.852;2023-03-03T03:10:17;99882.69;;;-0.55;100.00
21728;BME280;11026;50.560;17.852;2023-03-03T03:12:44;99877.41;;;-0.61;100.00
21728;BME280;11026;50.560;17.852;2023-03-03T03:15:12;99886.09;;;-0.56;100.00
21728;BME280;11026;50.560;17.852;2023-03-03T03:17:40;99875.72;;;-0.59;100.00
21728;BME280;11026;50.560;17.852;2023-03-03T03:20:08;99880.91;;;-0.59;100.00
21728;BME280;11026;50.560;17.852;2023-03-03T03:22:42;99883.50;;;-0.59;100.00
21728;BME280;11026;50.560;17.852;2023-03-03T03:25:09;99874.88;;;-0.54;100.00
21728;BME280;11026;50.560;17.852;2023-03-03T03:27:37;99876.63;;;-0.51;100.00
21728;BME280;11026;50.560;17.852;2023-03-03T03:30:05;99879.22;;;-0.54;100.00
21728;BME280;11026;50.560;17.852;2023-03-03T03:32:33;99876.63;;;-0.50;100.00
21728;BME280;11026;50.560;17.852;2023-03-03T03:35:01;99881.84;;;-0.46;100.00
21728;BME280;11026;50.560;17.852;2023-03-03T03:37:28;99884.50;;;-0.39;100.00
21728;BME280;11026;50.560;17.852;2023-03-03T03:39:56;99881.88;;;-0.42;100.00
21728;BME280;11026;50.560;17.852;2023-03-03T03:42:23;99895.75;;;-0.38;100.00
21728;BME280;11026;50.560;17.852;2023-03-03T03:44:57;99900.94;;;-0.41;100.00
21728;BME280;11026;50.560;17.852;2023-03-03T03:47:25;99911.25;;;-0.52;100.00
21728;BME280;11026;50.560;17.852;2023-03-03T03:49:53;99900.78;;;-0.64;100.00
21728;BME280;11026;50.560;17.852;2023-03-03T03:52:21;99900.84;;;-0.58;100.00
21728;BME280;11026;50.560;17.852;2023-03-03T03:54:48;99906.06;;;-0.52;100.00
21728;BME280;11026;50.560;17.852;2023-03-03T03:57:15;99909.56;;;-0.50;100.00
21728;BME280;11026;50.560;17.852;2023-03-03T03:59:43;99916.44;;;-0.58;100.00
21728;BME280;11026;50.560;17.852;2023-03-03T04:02:10;99909.44;;;-0.67;100.00
21728;BME280;11026;50.560;17.852;2023-03-03T04:04:39;99906.81;;;-0.68;100.00
21728;BME280;11026;50.560;17.852;2023-03-03T04:07:06;99917.19;;;-0.71;100.00
21728;BME280;11026;50.560;17.852;2023-03-03T04:09:37;99920.63;;;-0.72;100.00
21728;BME280;11026;50.560;17.852;2023-03-03T04:12:05;99920.59;;;-0.76;100.00
21728;BME280;11026;50.560;17.852;2023-03-03T04:14:33;99920.72;;;-0.60;100.00
21728;BME280;11026;50.560;17.852;2023-03-03T04:17:00;99914.69;;;-0.58;100.00
21728;BME280;11026;50.560;17.852;2023-03-03T04:19:28;99910.22;;;-0.76;100.00
21728;BME280;11026;50.560;17.852;2023-03-03T04:21:55;99913.72;;;-0.73;100.00
21728;BME280;11026;50.560;17.852;2023-03-03T04:24:23;99914.38;;;-0.97;100.00
21728;BME280;11026;50.560;17.852;2023-03-03T04:26:52;99910.09;;;-0.94;100.00
21728;BME280;11026;50.560;17.852;2023-03-03T04:29:20;99900.56;;;-0.93;100.00
21728;BME280;11026;50.560;17.852;2023-03-03T04:31:47;99892.81;;;-0.89;100.00
21728;BME280;11026;50.560;17.852;2023-03-03T04:34:16;99901.53;;;-0.81;100.00
21728;BME280;11026;50.560;17.852;2023-03-03T04:36:43;99916.31;;;-0.73;100.00
21728;BME280;11026;50.560;17.852;2023-03-03T04:39:13;99916.31;;;-0.73;100.00
21728;BME280;11026;50.560;17.852;2023-03-03T04:41:40;99910.16;;;-0.85;100.00
21728;BME280;11026;50.560;17.852;2023-03-03T04:44:07;99904.09;;;-0.85;100.00
21728;BME280;11026;50.560;17.852;2023-03-03T04:46:35;99920.47;;;-0.94;100.00
21728;BME280;11026;50.560;17.852;2023-03-03T04:49:02;99921.38;;;-0.90;100.00
21728;BME280;11026;50.560;17.852;2023-03-03T04:51:34;99914.50;;;-0.81;100.00
21728;BME280;11026;50.560;17.852;2023-03-03T04:54:02;99914.56;;;-0.75;100.00
21728;BME280;11026;50.560;17.852;2023-03-03T04:56:30;99918.94;;;-0.70;100.00
21728;BME280;11026;50.560;17.852;2023-03-03T04:58:57;99925.94;;;-0.63;100.00
21728;BME280;11026;50.560;17.852;2023-03-03T05:01:25;99917.28;;;-0.59;100.00
21728;BME280;11026;50.560;17.852;2023-03-03T05:03:53;99917.28;;;-0.59;100.00
21728;BME280;11026;50.560;17.852;2023-03-03T05:06:20;99922.50;;;-0.59;100.00
21728;BME280;11026;50.560;17.852;2023-03-03T05:08:48;99924.25;;;-0.55;100.00
21728;BME280;11026;50.560;17.852;2023-03-03T05:11:15;99930.31;;;-0.53;100.00
21728;BME280;11026;50.560;17.852;2023-03-03T05:13:44;99931.16;;;-0.57;100.00
21728;BME280;11026;50.560;17.852;2023-03-03T05:16:20;99933.75;;;-0.56;100.00
21728;BME280;11026;50.560;17.852;2023-03-03T05:18:47;99935.53;;;-0.50;100.00
21728;BME280;11026;50.560;17.852;2023-03-03T05:21:15;99939.00;;;-0.48;100.00
21728;BME280;11026;50.560;17.852;2023-03-03T05:23:43;99939.94;;;-0.43;100.00
21728;BME280;11026;50.560;17.852;2023-03-03T05:26:11;99936.41;;;-0.48;100.00
21728;BME280;11026;50.560;17.852;2023-03-03T05:28:38;99934.69;;;-0.46;100.00
21728;BME280;11026;50.560;17.852;2023-03-03T05:31:07;99943.31;;;-0.53;100.00
21728;BME280;11026;50.560;17.852;2023-03-03T05:33:35;99950.16;;;-0.64;100.00
21728;BME280;11026;50.560;17.852;2023-03-03T05:36:04;99950.13;;;-0.67;100.00
21728;BME280;11026;50.560;17.852;2023-03-03T05:38:31;99951.88;;;-0.66;100.00
21728;BME280;11026;50.560;17.852;2023-03-03T05:40:58;99957.91;;;-0.69;100.00
21728;BME280;11026;50.560;17.852;2023-03-03T05:43:26;99956.22;;;-0.67;100.00
21728;BME280;11026;50.560;17.852;2023-03-03T05:45:55;99951.84;;;-0.68;100.00
21728;BME280;11026;50.560;17.852;2023-03-03T05:48:23;99949.34;;;-0.56;100.00
21728;BME280;11026;50.560;17.852;2023-03-03T05:50:50;99948.44;;;-0.62;100.00
21728;BME280;11026;50.560;17.852;2023-03-03T05:53:18;99945.03;;;-0.55;100.00
21728;BME280;11026;50.560;17.852;2023-03-03T05:55:51;99949.41;;;-0.48;100.00
21728;BME280;11026;50.560;17.852;2023-03-03T05:58:25;99951.19;;;-0.42;100.00
21728;BME280;11026;50.560;17.852;2023-03-03T06:00:54;99951.16;;;-0.45;100.00
21728;BME280;11026;50.560;17.852;2023-03-03T06:03:21;99957.25;;;-0.43;100.00
21728;BME280;11026;50.560;17.852;2023-03-03T06:05:48;99948.56;;;-0.47;100.00
21728;BME280;11026;50.560;17.852;2023-03-03T06:08:16;99940.53;;;-0.76;100.00
21728;BME280;11026;50.560;17.852;2023-03-03T06:10:45;99953.38;;;-0.93;100.00
21728;BME280;11026;50.560;17.852;2023-03-03T06:13:14;99951.81;;;-0.72;100.00
21728;BME280;11026;50.560;17.852;2023-03-03T06:15:42;99955.38;;;-0.60;100.00
21728;BME280;11026;50.560;17.852;2023-03-03T06:18:09;99953.53;;;-0.71;100.00
21728;BME280;11026;50.560;17.852;2023-03-03T06:20:37;99955.38;;;-0.61;100.00
21728;BME280;11026;50.560;17.852;2023-03-03T06:23:05;99959.78;;;-0.53;100.00
21728;BME280;11026;50.560;17.852;2023-03-03T06:25:38;99952.00;;;-0.48;100.00
21728;BME280;11026;50.560;17.852;2023-03-03T06:28:07;99960.63;;;-0.52;100.00
21728;BME280;11026;50.560;17.852;2023-03-03T06:30:35;99970.13;;;-0.56;100.00
21728;BME280;11026;50.560;17.852;2023-03-03T06:33:03;99964.16;;;-0.47;100.00
21728;BME280;11026;50.560;17.852;2023-03-03T06:35:31;99959.78;;;-0.48;100.00
21728;BME280;11026;50.560;17.852;2023-03-03T06:37:58;99950.31;;;-0.43;100.00
21728;BME280;11026;50.560;17.852;2023-03-03T06:40:27;99946.88;;;-0.39;100.00
21728;BME280;11026;50.560;17.852;2023-03-03T06:42:56;99936.47;;;-0.36;100.00
21728;BME280;11026;50.560;17.852;2023-03-03T06:45:25;99931.13;;;-0.60;100.00
21728;BME280;11026;50.560;17.852;2023-03-03T06:47:53;99953.69;;;-0.59;100.00
21728;BME280;11026;50.560;17.852;2023-03-03T06:50:21;99966.78;;;-0.42;100.00
21728;BME280;11026;50.560;17.852;2023-03-03T06:52:49;99967.69;;;-0.37;100.00
21728;BME280;11026;50.560;17.852;2023-03-03T06:55:25;99974.50;;;-0.52;100.00
21728;BME280;11026;50.560;17.852;2023-03-03T06:57:52;99974.59;;;-0.41;100.00
21728;BME280;11026;50.560;17.852;2023-03-03T07:00:31;99965.84;;;-0.52;100.00
21728;BME280;11026;50.560;17.852;2023-03-03T07:03:03;99964.16;;;-0.44;100.00
21728;BME280;11026;50.560;17.852;2023-03-03T07:05:35;99950.25;;;-0.52;100.00
21728;BME280;11026;50.560;17.852;2023-03-03T07:08:08;99939.94;;;-0.43;100.00
21728;BME280;11026;50.560;17.852;2023-03-03T07:10:38;99953.78;;;-0.41;100.00
21728;BME280;11026;50.560;17.852;2023-03-03T07:13:27;99951.13;;;-0.50;100.00
21728;BME280;11026;50.560;17.852;2023-03-03T07:16:00;99951.81;;;-0.74;100.00
21728;BME280;11026;50.560;17.852;2023-03-03T07:18:47;99969.28;;;-0.53;100.00
21728;BME280;11026;50.560;17.852;2023-03-03T07:21:33;99967.59;;;-0.51;100.00
21728;BME280;11026;50.560;17.852;2023-03-03T07:26:44;99977.91;;;-0.63;100.00
21728;BME280;11026;50.560;17.852;2023-03-03T07:31:47;99976.09;;;-0.67;100.00
21728;BME280;11026;50.560;17.852;2023-03-03T07:37:34;99993.44;;;-0.65;100.00
21728;BME280;11026;50.560;17.852;2023-03-03T07:40:34;99997.69;;;-0.76;100.00
21728;BME280;11026;50.560;17.852;2023-03-03T07:42:57;99988.28;;;-0.62;100.00
21728;BME280;11026;50.560;17.852;2023-03-03T07:45:31;99986.53;;;-0.64;100.00
21728;BME280;11026;50.560;17.852;2023-03-03T07:48:18;99996.13;;;-0.57;100.00
21728;BME280;11026;50.560;17.852;2023-03-03T07:50:50;99992.41;;;-0.84;100.00
21728;BME280;11026;50.560;17.852;2023-03-03T07:53:26;100009.00;;;-0.69;100.00
21728;BME280;11026;50.560;17.852;2023-03-03T07:55:55;99998.63;;;-0.71;100.00
21728;BME280;11026;50.560;17.852;2023-03-03T07:58:36;99995.94;;;-0.79;100.00
21728;BME280;11026;50.560;17.852;2023-03-03T08:03:51;100022.09;;;-0.57;100.00
21728;BME280;11026;50.560;17.852;2023-03-03T08:12:01;100028.34;;;-0.37;100.00
21728;BME280;11026;50.560;17.852;2023-03-03T08:14:38;100025.81;;;-0.29;100.00
21728;BME280;11026;50.560;17.852;2023-03-03T08:17:35;100031.03;;;-0.26;100.00
21728;BME280;11026;50.560;17.852;2023-03-03T08:20:46;100016.31;;;-0.22;100.00
21728;BME280;11026;50.560;17.852;2023-03-03T08:23:15;100008.53;;;-0.21;100.00
21728;BME280;11026;50.560;17.852;2023-03-03T08:25:44;100009.38;;;-0.20;100.00
21728;BME280;11026;50.560;17.852;2023-03-03T08:28:12;100005.88;;;-0.32;100.00
21728;BME280;11026;50.560;17.852;2023-03-03T08:30:42;100004.81;;;-0.55;100.00
21728;BME280;11026;50.560;17.852;2023-03-03T08:33:10;100012.69;;;-0.46;100.00
21728;BME280;11026;50.560;17.852;2023-03-03T08:35:40;100002.34;;;-0.38;100.00
21728;BME280;11026;50.560;17.852;2023-03-03T08:38:09;100007.38;;;-0.58;100.00
21728;BME280;11026;50.560;17.852;2023-03-03T08:40:39;100008.41;;;-0.39;100.00
21728;BME280;11026;50.560;17.852;2023-03-03T08:43:08;100011.00;;;-0.38;100.00
21728;BME280;11026;50.560;17.852;2023-03-03T08:45:36;100001.38;;;-0.50;100.00
21728;BME280;11026;50.560;17.852;2023-03-03T08:48:04;100007.47;;;-0.47;100.00
21728;BME280;11026;50.560;17.852;2023-03-03T08:50:32;100010.09;;;-0.41;100.00
21728;BME280;11026;50.560;17.852;2023-03-03T08:53:06;100005.81;;;-0.38;100.00
21728;BME280;11026;50.560;17.852;2023-03-03T08:55:34;100008.31;;;-0.48;100.00
21728;BME280;11026;50.560;17.852;2023-03-03T08:58:04;100000.47;;;-0.53;100.00
21728;BME280;11026;50.560;17.852;2023-03-03T09:00:33;100010.78;;;-0.67;100.00
21728;BME280;11026;50.560;17.852;2023-03-03T09:03:00;100012.66;;;-0.51;100.00
21728;BME280;11026;50.560;17.852;2023-03-03T09:05:28;100017.03;;;-0.43;100.00
21728;BME280;11026;50.560;17.852;2023-03-03T09:07:56;100021.34;;;-0.45;100.00
21728;BME280;11026;50.560;17.852;2023-03-03T09:10:25;100007.38;;;-0.58;100.00
21728;BME280;11026;50.560;17.852;2023-03-03T09:13:01;100012.66;;;-0.49;100.00
21728;BME280;11026;50.560;17.852;2023-03-03T09:15:34;100016.13;;;-0.44;100.00
21728;BME280;11026;50.560;17.852;2023-03-03T09:18:18;100019.63;;;-0.42;100.00
21728;BME280;11026;50.560;17.852;2023-03-03T09:20:49;100015.28;;;-0.46;100.00
21728;BME280;11026;50.560;17.852;2023-03-03T09:23:35;100025.59;;;-0.52;100.00
21728;BME280;11026;50.560;17.852;2023-03-03T09:26:27;100021.19;;;-0.61;100.00
21728;BME280;11026;50.560;17.852;2023-03-03T09:31:50;100033.31;;;-0.63;100.00
21728;BME280;11026;50.560;17.852;2023-03-03T09:36:54;100024.63;;;-0.66;100.00
21728;BME280;11026;50.560;17.852;2023-03-03T09:39:26;100034.16;;;-0.65;100.00
21728;BME280;11026;50.560;17.852;2023-03-03T09:53:15;100037.66;;;-0.60;100.00
21728;BME280;11026;50.560;17.852;2023-03-03T09:56:08;100041.28;;;-0.47;100.00
21728;BME280;11026;50.560;17.852;2023-03-03T09:58:47;100047.41;;;-0.38;100.00
21728;BME280;11026;50.560;17.852;2023-03-03T10:01:32;100046.66;;;-0.23;100.00
21728;BME280;11026;50.560;17.852;2023-03-03T10:04:23;100054.50;;;-0.17;100.00
21728;BME280;11026;50.560;17.852;2023-03-03T10:10:33;100049.34;;;-0.09;100.00
21728;BME280;11026;50.560;17.852;2023-03-03T10:13:11;100049.34;;;-0.09;100.00
21728;BME280;11026;50.560;17.852;2023-03-03T10:18:55;100047.63;;;-0.04;100.00
21728;BME280;11026;50.560;17.852;2023-03-03T10:27:04;100064.19;;;0.06;100.00
21728;BME280;11026;50.560;17.852;2023-03-03T10:32:42;100059.91;;;0.15;100.00
21728;BME280;11026;50.560;17.852;2023-03-03T10:35:28;100058.25;;;0.20;100.00
21728;BME280;11026;50.560;17.852;2023-03-03T10:41:04;100058.22;;;0.23;100.00
21728;BME280;11026;50.560;17.852;2023-03-03T10:43:51;100062.63;;;0.29;100.00
21728;BME280;11026;50.560;17.852;2023-03-03T10:51:59;100059.22;;;0.41;100.00
21728;BME280;11026;50.560;17.852;2023-03-03T10:55:02;100055.72;;;0.37;100.00
21728;BME280;11026;50.560;17.852;2023-03-03T11:05:59;100035.94;;;0.73;100.00
21728;BME280;11026;50.560;17.852;2023-03-03T11:08:34;100035.97;;;0.81;100.00
21728;BME280;11026;50.560;17.852;2023-03-03T11:11:24;100040.31;;;0.80;100.00
21728;BME280;11026;50.560;17.852;2023-03-03T11:16:36;100030.75;;;0.78;100.00
21728;BME280;11026;50.560;17.852;2023-03-03T11:30:30;100018.59;;;0.83;100.00
21728;BME280;11026;50.560;17.852;2023-03-03T11:33:14;100023.84;;;0.89;100.00
21728;BME280;11026;50.560;17.852;2023-03-03T11:36:18;100029.03;;;0.80;100.00
21728;BME280;11026;50.560;17.852;2023-03-03T11:44:52;100023.75;;;0.61;100.00
21728;BME280;11026;50.560;17.852;2023-03-03T11:47:24;100022.84;;;0.52;100.00
21728;BME280;11026;50.560;17.852;2023-03-03T11:50:03;100023.59;;;0.34;100.00
21728;BME280;11026;50.560;17.852;2023-03-03T11:55:30;100016.69;;;0.39;100.00
21728;BME280;11026;50.560;17.852;2023-03-03T12:00:51;100025.19;;;0.04;100.00
21728;BME280;11026;50.560;17.852;2023-03-03T12:03:44;100013.94;;;0.10;100.00
21728;BME280;11026;50.560;17.852;2023-03-03T12:06:20;100021.78;;;0.17;100.00
21728;BME280;11026;50.560;17.852;2023-03-03T12:12:31;100011.50;;;0.42;100.00
21728;BME280;11026;50.560;17.852;2023-03-03T12:15:26;100013.09;;;0.12;100.00
21728;BME280;11026;50.560;17.852;2023-03-03T12:18:11;100001.00;;;0.23;100.00
21728;BME280;11026;50.560;17.852;2023-03-03T12:38:33;99991.59;;;0.53;100.00
21728;BME280;11026;50.560;17.852;2023-03-03T12:41:22;99991.63;;;0.62;100.00
21728;BME280;11026;50.560;17.852;2023-03-03T12:44:19;99991.66;;;0.70;100.00
21728;BME280;11026;50.560;17.852;2023-03-03T13:03:44;99996.88;;;0.76;100.00
21728;BME280;11026;50.560;17.852;2023-03-03T13:06:30;99990.81;;;0.79;100.00
21728;BME280;11026;50.560;17.852;2023-03-03T13:09:15;100002.06;;;0.74;100.00
21728;BME280;11026;50.560;17.852;2023-03-03T13:20:56;100002.91;;;0.61;100.00
21728;BME280;11026;50.560;17.852;2023-03-03T13:26:20;100002.88;;;0.49;100.00
21728;BME280;11026;50.560;17.852;2023-03-03T13:29:08;99988.97;;;0.47;100.00
21728;BME280;11026;50.560;17.852;2023-03-03T13:31:44;99995.91;;;0.45;100.00
21728;BME280;11026;50.560;17.852;2023-03-03T13:37:07;99989.00;;;0.62;100.00
21728;BME280;11026;50.560;17.852;2023-03-03T13:39:45;99979.44;;;0.52;100.00
21728;BME280;11026;50.560;17.852;2023-03-03T13:42:31;99981.19;;;0.55;100.00
21728;BME280;11026;50.560;17.852;2023-03-03T13:45:01;99975.88;;;0.30;100.00
21728;BME280;11026;50.560;17.852;2023-03-03T13:50:21;99975.06;;;0.42;100.00
21728;BME280;11026;50.560;17.852;2023-03-03T14:01:55;99966.44;;;0.52;100.00
21728;BME280;11026;50.560;17.852;2023-03-03T14:07:27;99976.84;;;0.55;100.00
21728;BME280;11026;50.560;17.852;2023-03-03T14:15:26;99972.53;;;0.57;100.00
21728;BME280;11026;50.560;17.852;2023-03-03T14:20:37;99973.41;;;0.65;100.00
21728;BME280;11026;50.560;17.852;2023-03-03T14:23:13;99967.34;;;0.65;100.00
21728;BME280;11026;50.560;17.852;2023-03-03T14:26:07;99969.97;;;0.72;100.00
21728;BME280;11026;50.560;17.852;2023-03-03T14:28:41;99960.41;;;0.70;100.00
21728;BME280;11026;50.560;17.852;2023-03-03T14:31:25;99966.50;;;0.73;100.00
21728;BME280;11026;50.560;17.852;2023-03-03T14:36:56;99981.19;;;0.53;100.00
21728;BME280;11026;50.560;17.852;2023-03-03T14:39:36;99970.75;;;0.44;100.00
21728;BME280;11026;50.560;17.852;2023-03-03T14:42:28;99964.72;;;0.56;100.00
21728;BME280;11026;50.560;17.852;2023-03-03T14:44:56;99958.66;;;0.60;100.00
21728;BME280;11026;50.560;17.852;2023-03-03T14:47:28;99962.13;;;0.62;100.00
21728;BME280;11026;50.560;17.852;2023-03-03T14:49:58;99958.66;;;0.70;100.00
21728;BME280;11026;50.560;17.852;2023-03-03T14:52:32;99950.00;;;0.78;100.00
21728;BME280;11026;50.560;17.852;2023-03-03T14:55:35;99950.00;;;0.73;100.00
21728;BME280;11026;50.560;17.852;2023-03-03T14:57:49;99953.44;;;0.63;100.00
21728;BME280;11026;50.560;17.852;2023-03-03T15:05:22;99956.94;;;0.68;100.00
21728;BME280;11026;50.560;17.852;2023-03-03T15:07:55;99956.06;;;0.64;100.00
21728;BME280;11026;50.560;17.852;2023-03-03T15:10:35;99961.25;;;0.64;100.00
21728;BME280;11026;50.560;17.852;2023-03-03T15:13:33;99957.78;;;0.65;100.00
21728;BME280;11026;50.560;17.852;2023-03-03T15:16:10;99953.41;;;0.52;100.00
21728;BME280;11026;50.560;17.852;2023-03-03T15:19:11;99947.28;;;0.38;100.00
21728;BME280;11026;50.560;17.852;2023-03-03T15:24:48;99948.94;;;0.17;100.00
21728;BME280;11026;50.560;17.852;2023-03-03T15:27:25;99946.41;;;0.33;100.00
21728;BME280;11026;50.560;17.852;2023-03-03T15:30:03;99949.88;;;0.38;100.00
21728;BME280;11026;50.560;17.852;2023-03-03T15:36:00;99945.53;;;0.38;100.00
21728;BME280;11026;50.560;17.852;2023-03-03T15:38:33;99936.03;;;0.45;100.00
21728;BME280;11026;50.560;17.852;2023-03-03T15:41:30;99936.00;;;0.43;100.00
21728;BME280;11026;50.560;17.852;2023-03-03T16:01:34;99925.66;;;0.57;100.00
21728;BME280;11026;50.560;17.852;2023-03-03T16:04:15;99928.25;;;0.63;100.00
21728;BME280;11026;50.560;17.852;2023-03-03T16:12:55;99925.66;;;0.59;100.00
21728;BME280;11026;50.560;17.852;2023-03-03T16:15:49;99922.09;;;0.35;100.00
21728;BME280;11026;50.560;17.852;2023-03-03T16:21:28;99916.06;;;0.41;100.00
21728;BME280;11026;50.560;17.852;2023-03-03T16:24:30;99921.31;;;0.53;100.00
21728;BME280;11026;50.560;17.852;2023-03-03T16:27:13;99923.94;;;0.62;100.00
21728;BME280;11026;50.560;17.852;2023-03-03T16:32:39;99928.28;;;0.66;100.00
21728;BME280;11026;50.560;17.852;2023-03-03T16:35:20;99929.19;;;0.71;100.00
21728;BME280;11026;50.560;17.852;2023-03-03T16:40:29;99923.94;;;0.65;100.00
21728;BME280;11026;50.560;17.852;2023-03-03T16:45:40;99929.91;;;0.34;100.00
21728;BME280;11026;50.560;17.852;2023-03-03T16:48:47;99942.06;;;0.39;100.00
21728;BME280;11026;50.560;17.852;2023-03-03T16:54:52;99946.53;;;0.76;100.00
21728;BME280;11026;50.560;17.852;2023-03-03T16:57:27;99937.84;;;0.75;100.00
21728;BME280;11026;50.560;17.852;2023-03-03T17:08:12;99958.66;;;0.61;100.00
21728;BME280;11026;50.560;17.852;2023-03-03T17:10:51;99954.31;;;0.60;100.00